Tiempo atmosférico en la estación meteorológica de Alfaro, La Rioja (285 m.)



Fecha
DESCASC
Temp. máxima en grados centígrados (hora)
DESCASC
Temp. mínima en grados centígrados (hora)
DESCASC
Temp. media en grados centígrados
DESCASC
Racha de viento máxima en m/sg (hora)
DESCASC
Velocidad máxima media en intervalos de 10 minutos(hora)
DESCASC
Precipitaciones diarias en mm
DESCASC
Precipitaciones de 00:00 a 06:00 en mm
DESCASC
Precipitaciones de 06:00 a 12:00 en mm
DESCASC
Precipitaciones de 12:00 a 18:00 en mm
DESCASC
Precipitaciones de 18:00 a 24:00 en mm
DESCASC
29-10-2020 20.3 (15:10) 3.1 (07:20) 11.7 3.61 (12:00) 2.22 (08:50) 0 0 0 0 0
28-10-2020 19.7 (15:50) 5.1 (07:00) 12.4 3.89 (16:30) 2.22 (18:50) 0 0 0 0 0
27-10-2020 17.2 (15:30) 0.5 (00:00) 8.9 4.17 (13:30) 2.5 (13:30) 0 0 0 0 0
26-10-2020 16.6 (15:00) 3.9 (00:00) 10.3 13.89 (13:00) 8.33 (12:50) 0 0 0 0 0
25-10-2020 18.3 (12:30) 10.1 (00:00) 14.2 13.89 (13:00) 10.56 (13:00) 1.2 0 0 0 1.2
24-10-2020 18.6 (16:20) 1.7 (00:00) 10.2 8.89 (21:00) 6.67 (21:00) 0 0 0 0 0
23-10-2020 20.4 (15:00) 7 (00:00) 13.7 7.5 (02:30) 5 (02:40) 0.4 0 0 0.4 0
22-10-2020 22.4 (14:10) 12.7 (00:00) 17.5 12.22 (14:20) 8.33 (14:20) 0 0 0 0 0
21-10-2020 22.2 (14:20) 13.1 (00:00) 17.7 21.11 (02:20) 14.44 (02:20) 1.4 1.2 0 0 0.2
20-10-2020 16.9 (22:40) 14.4 (00:00) 15.6 21.11 (22:40) 13.61 (22:40) 6.2 0 0.6 5.4 0.2
19-10-2020 21.5 (16:00) 1.8 (00:00) 11.6 15.56 (17:10) 10.28 (17:10) 0 0 0 0 0
18-10-2020 20.5 (18:40) 0.4 (00:00) 10.5 3.61 (16:30) 2.22 (16:00) 0 0 0 0 0
17-10-2020 18.3 (17:40) -1.5 (-00:0) 8.4 3.33 (13:00) 2.22 (19:50) 0 0 0 0 0
16-10-2020 16 (14:40) 3.7 (00:00) 9.9 11.94 (16:10) 7.22 (17:00) 0 0 0 0 0
15-10-2020 15.3 (15:00) 5 (00:00) 10.2 11.11 (15:40) 7.22 (15:30) 0 0 0 0 0
14-10-2020 14.9 (17:10) 8 (00:00) 11.4 13.61 (14:00) 8.33 (16:50) 0 0 0 0 0
13-10-2020 19.3 (16:10) 9.7 (00:00) 14.5 11.39 (11:00) 6.67 (18:50) 0 0 0 0 0
12-10-2020 17.6 (16:10) 10 (00:00) 13.8 12.22 (14:40) 7.5 (16:20) 0 0 0 0 0
11-10-2020 16.6 (15:40) 10.3 (00:00) 13.5 15 (15:40) 8.89 (15:40) 0 0 0 0 0
10-10-2020 19.7 (12:00) 10.5 (00:00) 15.1 10.56 (15:10) 6.67 (15:30) 0 0 0 0 0
09-10-2020 25 (17:10) 8 (00:00) 16.5 8.33 (19:00) 4.72 (19:00) 0 0 0 0 0
08-10-2020 23.6 (17:20) 6.8 (00:00) 15.2 4.72 (15:10) 3.33 (00:10) 0 0 0 0 0
07-10-2020 24.2 (16:50) 10.5 (00:00) 17.4 9.44 (13:40) 5.28 (13:40) 0 0 0 0 0
06-10-2020 24.2 (17:10) 7.2 (00:00) 15.7 8.61 (17:00) 5.28 (17:00) 0 0 0 0 0
05-10-2020 19.6 (17:00) 4.6 (00:00) 12.1 7.22 (14:30) 4.17 (15:10) 0 0 0 0 0
04-10-2020 15.7 (13:50) 2.9 (00:00) 9.3 9.44 (16:50) 5.56 (16:50) 3 0 0.4 2.6 0
03-10-2020 19.6 (15:50) 2.9 (00:00) 11.3 11.39 (14:20) 7.22 (14:40) 0 0 0 0 0
02-10-2020 19.4 (00:30) 5.7 (00:00) 12.5 14.72 (04:40) 8.89 (04:40) 14.8 0 14.6 0.2 0
01-10-2020 21.8 (16:50) 6.6 (00:00) 14.2 9.72 (11:10) 6.39 (23:59) 0 0 0 0 0

Gráficas

Temp. máximas Temp. mínimas Temp. medias Precipitaciones Rachas de viento máximas Velocidades máximas media en intervalos de 10 minutos

Datos horarios

Fecha y hora oficial Temperatura (ºC) Velocidad del viento (km/h) Dirección del viento Racha (km/h) Dirección de racha Precipitación (mm) Presión (hPa) Tendencia (hPa) Humedad (%)
2020-10-30 23:00:00 4.1 0 Calma -- -- 0 -- -- 92
2020-10-30 22:00:00 5.3 0 Calma 3 Sudeste 0 -- -- 91
2020-10-30 21:00:00 7 0 Calma 8 Sur 0 -- -- 83
2020-10-30 20:00:00 8.8 6 Sur 8 Sur 0 -- -- 85
2020-10-30 19:00:00 11 6 Sudoeste 8 Sudoeste 0 -- -- 75
2020-10-30 18:00:00 17.4 0 Calma -- -- 2.8 -- -- 56
2020-10-30 17:00:00 19.9 0 Calma 9 Noroeste 0 -- -- 51
2020-10-30 16:00:00 19.8 3 Norte 6 Nordeste 0 -- -- 50
2020-10-30 15:00:00 19.6 2 Sudeste 9 Sudeste 0 -- -- 51
2020-10-30 14:00:00 18.5 0 Calma 10 Este 0 -- -- 55
2020-10-30 13:00:00 16.6 3 Sudeste 10 Este 0 -- -- 62
2020-10-30 12:00:00 14.6 5 Norte 12 Norte 0 -- -- 68
2020-10-30 11:00:00 12.4 2 Nordeste 5 Norte 0 -- -- 77
2020-10-30 10:00:00 9.6 0 Calma 5 Norte 0 -- -- 96
2020-10-30 09:00:00 4.9 0 Calma 4 Sudoeste 0 -- -- 100
2020-10-30 08:00:00 0.7 2 Sudoeste 6 Sudoeste 0 -- -- 99
2020-10-30 07:00:00 0.9 0 Calma 4 Sudoeste 0 -- -- 98
2020-10-30 06:00:00 1.6 3 Sudoeste 4 Sudoeste 0 -- -- 98
2020-10-30 05:00:00 2 4 Sudoeste 8 Sudoeste 0 -- -- 98
2020-10-30 04:00:00 2.2 2 Sudoeste 4 Sudoeste 0 -- -- 97
2020-10-30 03:00:00 2.5 4 Sudoeste 5 Sudoeste 0 -- -- 96
2020-10-30 02:00:00 3.2 0 Calma 5 Sudoeste 0 -- -- 96
2020-10-30 01:00:00 4.1 0 Calma 4 Oeste 0 -- -- 95
2020-10-30 00:00:00 4.8 0 Calma 5 Sur 0 -- -- 93
2020-10-29 23:00:00 5.6 2 Sur 4 Sur 0 -- -- 91
2020-10-29 22:00:00 6.7 2 Sudeste 6 Sudoeste 0 -- -- 90
2020-10-29 21:00:00 7.8 5 Sur 6 Sur 0 -- -- 87
2020-10-29 20:00:00 9.6 4 Sudoeste 6 Sudoeste 0 -- -- 83
2020-10-29 19:00:00 12.7 0 Calma 5 Sudoeste 0 -- -- 72
2020-10-29 18:00:00 17.9 3 Este 8 Este 0 -- -- 58
2020-10-29 17:00:00 20.1 3 Sudeste 9 Sudeste 0 -- -- 51
2020-10-29 16:00:00 19.9 4 Nordeste 10 Este 0 -- -- 51
2020-10-29 15:00:00 20.1 7 Este 13 Nordeste 0 -- -- 53
2020-10-29 14:00:00 19.4 3 Sudoeste 12 Este 0 -- -- 54
2020-10-29 13:00:00 17.6 4 Sudeste 12 Nordeste 0 -- -- 60
2020-10-29 12:00:00 15.8 6 Nordeste 13 Norte 0 -- -- 66
2020-10-29 11:00:00 14.1 4 Oeste 10 Noroeste 0 -- -- 72
2020-10-29 10:00:00 11.2 5 Noroeste 12 Nordeste 0 -- -- 94
2020-10-29 09:00:00 8 7 Nordeste 11 Nordeste 0 -- -- 100
2020-10-29 08:00:00 3.2 0 Calma 7 Sur 0 -- -- 99
2020-10-29 07:00:00 3.4 3 Sudoeste 9 Sur 0 -- -- 98
2020-10-29 06:00:00 3.4 3 Sudoeste 8 Sudoeste 0 -- -- 98
2020-10-29 05:00:00 5 0 Calma 4 Sur 0 -- -- 98
2020-10-29 04:00:00 4.6 3 Oeste 8 Sudoeste 0 -- -- 97
2020-10-29 03:00:00 4.8 0 Calma 4 Oeste 0 -- -- 94
2020-10-29 02:00:00 6 0 Calma 4 Sur 0 -- -- 94
2020-10-29 01:00:00 7.4 3 Sudoeste 9 Sur 0 -- -- 93
2020-10-29 00:00:00 9.2 0 Calma 10 Oeste 0 -- -- 95
2020-10-28 23:00:00 8.4 6 Oeste 9 Noroeste 0 -- -- 94
2020-10-28 22:00:00 8.5 6 Noroeste 9 Noroeste 0 -- -- 94
2020-10-28 21:00:00 8.2 5 Oeste 8 Sudoeste 0 -- -- 88
2020-10-28 20:00:00 9.8 3 Este 6 Nordeste 0 -- -- 86
2020-10-28 19:00:00 12.3 5 Sudoeste 9 Oeste 0 -- -- 76
2020-10-28 18:00:00 17.9 0 Calma 8 Norte 0 -- -- 63
2020-10-28 17:00:00 18.7 6 Norte 14 Norte 0 -- -- 56
2020-10-28 16:00:00 19.6 7 Norte 12 Noroeste 0 -- -- 54
2020-10-28 15:00:00 19.1 4 Norte 10 Nordeste 0 -- -- 57
2020-10-28 14:00:00 18.4 6 Sudeste 10 Este 0 -- -- 57
2020-10-28 13:00:00 16.2 4 Este 11 Sudeste 0 -- -- 63
2020-10-28 12:00:00 14.2 5 Este 10 Nordeste 0 -- -- 71
2020-10-28 11:00:00 11.4 3 Nordeste 8 Norte 0 -- -- 85
2020-10-28 10:00:00 9.1 3 Este 5 Este 0 -- -- 98
2020-10-28 09:00:00 6.8 0 Calma 5 Oeste 0 -- -- 99
2020-10-28 08:00:00 5.1 2 Sudoeste 6 Sur 0 -- -- 98
2020-10-28 07:00:00 5.1 0 Calma 4 Sudoeste 0 -- -- 97
2020-10-28 06:00:00 5.7 2 Oeste 5 Oeste 0 -- -- 97
2020-10-28 05:00:00 6.1 0 Calma 4 Sudoeste 0 -- -- 97
2020-10-28 04:00:00 6.8 2 Este 12 Sur 0 -- -- 97
2020-10-28 03:00:00 5.9 0 Calma 5 Norte 0 -- -- 95
2020-10-28 02:00:00 6.6 2 Oeste 4 Oeste 0 -- -- 93
2020-10-28 01:00:00 7 3 Sur 6 Oeste 0 -- -- 90
2020-10-28 00:00:00 8.6 4 Noroeste 8 Norte 0 -- -- 89
2020-10-27 23:00:00 9.7 3 Nordeste 6 Sur 0 -- -- 87
2020-10-27 22:00:00 10.5 2 Este 7 Sur 0 -- -- 87
2020-10-27 21:00:00 9.4 5 Sur 8 Sur 0 -- -- 88
2020-10-27 20:00:00 9 5 Sudoeste 8 Sudoeste 0 -- -- 82
2020-10-27 19:00:00 11.3 5 Sudoeste 6 Sur 0 -- -- 74
2020-10-27 18:00:00 14.3 4 Noroeste 11 Norte 0 -- -- 63
2020-10-27 17:00:00 15.8 6 Norte 13 Norte 0 -- -- 53
2020-10-27 16:00:00 17.1 5 Este 12 Nordeste 0 -- -- 50
2020-10-27 15:00:00 16.8 8 Este 13 Nordeste 0 -- -- 52
2020-10-27 14:00:00 15.9 6 Este 15 Este 0 -- -- 53
2020-10-27 13:00:00 14.8 5 Este 12 Norte 0 -- -- 57
2020-10-27 12:00:00 13.5 4 Nordeste 14 Este 0 -- -- 64
2020-10-27 11:00:00 11.3 4 Este 8 Sudeste 0 -- -- 76
2020-10-27 10:00:00 6.9 0 Calma 3 Sudeste 0 -- -- 100
2020-10-27 09:00:00 5 0 Calma 5 Norte 0 -- -- 100
2020-10-27 08:00:00 3.3 2 Noroeste 3 Oeste 0 -- -- 100
2020-10-27 07:00:00 2.2 0 Calma 3 Nordeste 0 -- -- 99
2020-10-27 06:00:00 1.3 0 Calma 5 Sur 0 -- -- 98
2020-10-27 05:00:00 0.5 3 Sudoeste 5 Sudoeste 0 -- -- 97
2020-10-27 04:00:00 0.7 0 Calma 8 Sur 0 -- -- 96
2020-10-27 03:00:00 1.6 0 Calma 6 Sur 0 -- -- 96
2020-10-27 02:00:00 1.4 0 Calma 7 Sudoeste 0 -- -- 94
2020-10-27 01:00:00 2.3 4 Sudoeste 6 Oeste 0 -- -- 92
2020-10-27 00:00:00 3.9 0 Calma 8 Sur 0 -- -- 91
2020-10-26 23:00:00 5.4 6 Sudoeste 11 Sur 0 -- -- 87
2020-10-26 22:00:00 7.8 5 Sudoeste 8 Sur 0 -- -- 85
2020-10-26 21:00:00 9.1 3 Sur 11 Sur 0 -- -- 84
2020-10-26 20:00:00 10.5 2 Noroeste 10 Nordeste 0 -- -- 78
2020-10-26 19:00:00 10.4 5 Nordeste 12 Este 0 -- -- 76
2020-10-26 18:00:00 12.3 7 Norte 32 Noroeste 0 -- -- 64
2020-10-26 17:00:00 15.1 20 Noroeste 41 Noroeste 0 -- -- 48
2020-10-26 16:00:00 15.7 25 Noroeste 43 Noroeste 0 -- -- 45
2020-10-26 15:00:00 16.6 26 Noroeste 45 Noroeste 0 -- -- 45
2020-10-26 14:00:00 16.3 29 Noroeste 48 Noroeste 0 -- -- 44
2020-10-26 13:00:00 15.1 30 Noroeste 50 Noroeste 0 -- -- 48
2020-10-26 12:00:00 14.2 27 Noroeste 42 Noroeste 0 -- -- 54
2020-10-26 11:00:00 13.4 21 Noroeste 38 Noroeste 0 -- -- 61
2020-10-26 10:00:00 10.3 12 Noroeste 22 Noroeste 0 -- -- 79
2020-10-26 09:00:00 7.5 9 Noroeste 17 Noroeste 0 -- -- 86
2020-10-26 08:00:00 6.5 9 Noroeste 17 Noroeste 0 -- -- 90
2020-10-26 07:00:00 6.5 10 Noroeste 19 Noroeste 0 -- -- 92
2020-10-26 06:00:00 6.2 9 Noroeste 14 Noroeste 0 -- -- 92
2020-10-26 05:00:00 6.9 8 Noroeste 13 Noroeste 0 -- -- 91
2020-10-26 04:00:00 7.6 8 Noroeste 13 Noroeste 0 -- -- 90
2020-10-26 03:00:00 7.9 5 Norte 10 Oeste 0 -- -- 91
2020-10-26 02:00:00 8.2 3 Noroeste 20 Noroeste 0 -- -- 87
2020-10-26 01:00:00 9.1 8 Noroeste 18 Noroeste 0 -- -- 88
2020-10-26 00:00:00 10.1 13 Noroeste 19 Noroeste 0 -- -- 88
2020-10-25 23:00:00 10.6 8 Norte 26 Noroeste 0 -- -- 90
2020-10-25 22:00:00 12.1 18 Noroeste 32 Norte 0 -- -- 92
2020-10-25 21:00:00 12.6 0 Calma 7 Sudoeste 0.2 -- -- 95
2020-10-25 20:00:00 13.3 0 Calma 6 Nordeste 0.8 -- -- 95
2020-10-25 19:00:00 13.5 4 Nordeste 28 Noroeste 0.2 -- -- 94
2020-10-25 18:00:00 15.8 19 Noroeste 39 Sudoeste 0 -- -- 81
2020-10-25 17:00:00 17.6 19 Sur 40 Sur 0 -- -- 62
2020-10-25 16:00:00 18 23 Sur 41 Sur 0 -- -- 59
2020-10-25 15:00:00 17.8 28 Sur 45 Sur 0 -- -- 58
2020-10-25 14:00:00 17.9 29 Sur 46 Sur 0 -- -- 56
2020-10-25 13:00:00 17.7 38 Sur 50 Sudoeste 0 -- -- 56
2020-10-25 12:00:00 17.7 25 Sur 41 Sur 0 -- -- 55
2020-10-25 11:00:00 17 23 Sur 46 Sudoeste 0 -- -- 57
2020-10-25 10:00:00 15.6 31 Sur 47 Sur 0 -- -- 61
2020-10-25 09:00:00 14.4 25 Sur 36 Sur 0 -- -- 64
2020-10-25 08:00:00 13 17 Sur 32 Sur 0 -- -- 69
2020-10-25 07:00:00 13.1 22 Sur 37 Sur 0 -- -- 68
2020-10-25 06:00:00 12.6 30 Sudoeste 49 Sudoeste 0 -- -- 71
2020-10-25 05:00:00 13 18 Sur 40 Sudoeste 0 -- -- 70
2020-10-25 04:00:00 12.9 13 Sur 39 Sudoeste 0 -- -- 70
2020-10-25 03:00:00 13.8 24 Sudoeste 37 Sudoeste 0 -- -- 68
2020-10-25 02:00:00 13.5 16 Sur 26 Sur 0 -- -- 69
2020-10-25 01:00:00 12.7 16 Sur 24 Sur 0 -- -- 75
2020-10-25 00:00:00 10.8 12 Sur 18 Sur 0 -- -- 83
2020-10-24 23:00:00 10.2 10 Sudoeste 19 Sur 0 -- -- 84
2020-10-24 22:00:00 11.4 14 Sudoeste 25 Sudoeste 0 -- -- 80
2020-10-24 21:00:00 12.6 24 Sudoeste 32 Sudoeste 0 -- -- 78
2020-10-24 20:00:00 12.1 8 Sudoeste 15 Sur 0 -- -- 76
2020-10-24 19:00:00 15.1 6 Oeste 8 Oeste 0 -- -- 68
2020-10-24 18:00:00 18.2 6 Noroeste 10 Oeste 0 -- -- 57
2020-10-24 17:00:00 18.4 4 Norte 9 Norte 0 -- -- 53
2020-10-24 16:00:00 18.3 4 Noroeste 10 Nordeste 0 -- -- 53
2020-10-24 15:00:00 17.9 4 Oeste 9 Este 0 -- -- 53
2020-10-24 14:00:00 16.3 3 Este 12 Este 0 -- -- 58
2020-10-24 13:00:00 14.4 4 Este 10 Este 0 -- -- 64
2020-10-24 12:00:00 12.2 5 Nordeste 9 Nordeste 0 -- -- 79
2020-10-24 11:00:00 9.6 3 Nordeste 6 Norte 0 -- -- 93
2020-10-24 10:00:00 6.6 3 Este 5 Nordeste 0 -- -- 99
2020-10-24 09:00:00 2.3 0 Calma 4 Sur 0 -- -- 99
2020-10-24 08:00:00 1.7 0 Calma 9 Sudoeste 0 -- -- 98
2020-10-24 07:00:00 2.5 2 Este 5 Sudoeste 0 -- -- 97
2020-10-24 06:00:00 2.6 0 Calma 3 Sudoeste 0 -- -- 97
2020-10-24 05:00:00 3.1 0 Calma 6 Norte 0 -- -- 96
2020-10-24 04:00:00 3.3 3 Sudoeste 6 Sudoeste 0 -- -- 95
2020-10-24 03:00:00 3.8 2 Oeste 4 Sudoeste 0 -- -- 93
2020-10-24 02:00:00 4.9 0 Calma 3 Sudeste 0 -- -- 93
2020-10-24 01:00:00 6.1 0 Calma 6 Sudoeste 0 -- -- 93
2020-10-24 00:00:00 7 5 Sudoeste 8 Sudoeste 0 -- -- 91
2020-10-23 23:00:00 8 5 Sudoeste 10 Sudoeste 0 -- -- 92
2020-10-23 22:00:00 7.7 2 Sur 11 Sudoeste 0 -- -- 88
2020-10-23 21:00:00 9.4 4 Oeste 8 Oeste 0 -- -- 81
2020-10-23 20:00:00 12.2 5 Oeste 12 Noroeste 0 -- -- 73
2020-10-23 19:00:00 16.3 4 Noroeste 25 Noroeste 0 -- -- 57
2020-10-23 18:00:00 17.6 14 Noroeste 27 Noroeste 0 -- -- 50
2020-10-23 17:00:00 18 14 Norte 27 Noroeste 0 -- -- 55
2020-10-23 16:00:00 17.1 10 Norte 26 Norte 0.4 -- -- 67
2020-10-23 15:00:00 20.4 5 Sudoeste 13 Oeste 0 -- -- 47
2020-10-23 14:00:00 18 4 Nordeste 15 Norte 0 -- -- 56
2020-10-23 13:00:00 17.6 9 Nordeste 15 Nordeste 0 -- -- 64
2020-10-23 12:00:00 16.8 4 Este 16 Norte 0 -- -- 69
2020-10-23 11:00:00 16.2 5 Este 9 Este 0 -- -- 76
2020-10-23 10:00:00 14 0 Calma 6 Sudeste 0 -- -- 93
2020-10-23 09:00:00 10.2 2 Nordeste 8 Sur 0 -- -- 93
2020-10-23 08:00:00 11.3 4 Oeste 10 Noroeste 0 -- -- 90
2020-10-23 07:00:00 13.1 9 Noroeste 23 Oeste 0 -- -- 85
2020-10-23 06:00:00 12.3 7 Sudoeste 20 Sudoeste 0 -- -- 84
2020-10-23 05:00:00 12.9 3 Sudeste 17 Oeste 0 -- -- 81
2020-10-23 04:00:00 13.1 6 Sudoeste 24 Sudoeste 0 -- -- 77
2020-10-23 03:00:00 15 11 Sur 27 Sudoeste 0 -- -- 71
2020-10-23 02:00:00 15.4 10 Sudeste 26 Sudeste 0 -- -- 80
2020-10-23 01:00:00 15.5 16 Sudeste 24 Sudeste 0 -- -- 92
2020-10-23 00:00:00 15.6 13 Sudeste 24 Sudeste 0 -- -- 91
2020-10-22 23:00:00 16.3 16 Sudeste 29 Sudeste 0 -- -- 91
2020-10-22 22:00:00 16.7 21 Sudeste 30 Este 0 -- -- 88
2020-10-22 21:00:00 17.1 14 Sur 36 Sudeste 0 -- -- 86
2020-10-22 20:00:00 17.4 16 Sudeste 33 Sudeste 0 -- -- 83
2020-10-22 19:00:00 18.4 18 Sudeste 39 Sudeste 0 -- -- 83
2020-10-22 18:00:00 19.5 24 Sudeste 37 Sudeste 0 -- -- 76
2020-10-22 17:00:00 19.9 20 Sudeste 37 Sudeste 0 -- -- 76
2020-10-22 16:00:00 20.5 21 Sudeste 38 Sudeste 0 -- -- 70
2020-10-22 15:00:00 21.3 25 Sudeste 44 Sudeste 0 -- -- 65
2020-10-22 14:00:00 22 28 Sudeste 41 Sudeste 0 -- -- 63
2020-10-22 13:00:00 19.5 20 Sudeste 34 Sudeste 0 -- -- 72
2020-10-22 12:00:00 18.2 18 Sur 33 Sudeste 0 -- -- 78
2020-10-22 11:00:00 17.4 24 Sudeste 34 Sudeste 0 -- -- 82
2020-10-22 10:00:00 15.8 11 Sudeste 21 Sudeste 0 -- -- 84
2020-10-22 09:00:00 14.1 4 Sudeste 10 Sudoeste 0 -- -- 85
2020-10-22 08:00:00 14.4 5 Sudoeste 14 Sudeste 0 -- -- 81
2020-10-22 07:00:00 14.3 9 Sur 19 Sudeste 0 -- -- 81
2020-10-22 06:00:00 14 4 Sudoeste 12 Oeste 0 -- -- 84
2020-10-22 05:00:00 13.8 8 Sur 14 Sur 0 -- -- 86
2020-10-22 04:00:00 13.5 2 Noroeste 9 Sudoeste 0 -- -- 87
2020-10-22 03:00:00 13.5 4 Sudoeste 12 Sudoeste 0 -- -- 85
2020-10-22 02:00:00 13.5 5 Sudoeste 16 Este 0 -- -- 84
2020-10-22 01:00:00 13.1 6 Nordeste 11 Oeste 0 -- -- 82
2020-10-22 00:00:00 14.6 9 Sudoeste 21 Sudoeste 0 -- -- 77
2020-10-21 23:00:00 13.5 2 Sur 13 Oeste 0 -- -- 80
2020-10-21 22:00:00 14 8 Sudeste 18 Sudoeste 0.2 -- -- 80
2020-10-21 21:00:00 15 12 Sudoeste 21 Sudoeste 0 -- -- 73
2020-10-21 20:00:00 17.6 10 Sur 21 Sur 0 -- -- 62
2020-10-21 19:00:00 18.9 10 Sur 38 Sudoeste 0 -- -- 57
2020-10-21 18:00:00 19.4 15 Sur 46 Sudoeste 0 -- -- 60
2020-10-21 17:00:00 20.3 30 Sudoeste 41 Sudoeste 0 -- -- 59
2020-10-21 16:00:00 20.2 14 Sur 30 Sudoeste 0 -- -- 61
2020-10-21 15:00:00 21.7 14 Sur 24 Sur 0 -- -- 55
2020-10-21 14:00:00 22 14 Sur 35 Sudeste 0 -- -- 55
2020-10-21 13:00:00 20.6 23 Sudeste 35 Sudeste 0 -- -- 61
2020-10-21 12:00:00 20.4 17 Sudeste 31 Sur 0 -- -- 58
2020-10-21 11:00:00 20.3 19 Sur 34 Sur 0 -- -- 55
2020-10-21 10:00:00 17.5 19 Sur 27 Sudeste 0 -- -- 70
2020-10-21 09:00:00 15.9 6 Sudeste 17 Este 0 -- -- 82
2020-10-21 08:00:00 16.1 14 Este 23 Este 0 -- -- 80
2020-10-21 07:00:00 16.7 12 Sur 43 Sudeste 0 -- -- 75
2020-10-21 06:00:00 15.9 28 Sudeste 51 Sur 0 -- -- 82
2020-10-21 05:00:00 15 24 Sudeste 57 Sudeste 0 -- -- 87
2020-10-21 04:00:00 15.1 36 Sudeste 63 Sudeste 0.8 -- -- 89
2020-10-21 03:00:00 15.8 38 Sudeste 76 Sudeste 0.4 -- -- 86
2020-10-21 02:00:00 16.7 45 Sudeste 71 Sudeste 0 -- -- 80
2020-10-21 01:00:00 16.5 43 Sudeste 67 Sudeste 0 -- -- 83
2020-10-21 00:00:00 16.8 38 Sudeste 66 Sudeste 0 -- -- 81
2020-10-20 23:00:00 16.8 43 Sudeste 76 Sudeste 0 -- -- 79
2020-10-20 22:00:00 16.6 40 Sudeste 70 Sudeste 0 -- -- 79
2020-10-20 21:00:00 16.1 36 Sudeste 54 Sudeste 0 -- -- 81
2020-10-20 20:00:00 16.1 33 Sudeste 53 Sudeste 0.2 -- -- 83
2020-10-20 19:00:00 16.4 25 Sudeste 42 Sudeste 0 -- -- 85
2020-10-20 18:00:00 16.6 23 Sudeste 42 Sudeste 0 -- -- 90
2020-10-20 17:00:00 16.1 14 Sudeste 27 Sudeste 0.2 -- -- 97
2020-10-20 16:00:00 15.6 17 Sudeste 33 Sudeste 1 -- -- 97
2020-10-20 15:00:00 15.4 21 Sudeste 33 Sudeste 1.8 -- -- 96
2020-10-20 14:00:00 15.2 20 Sudeste 41 Sudeste 1.8 -- -- 95
2020-10-20 13:00:00 15.1 30 Sudeste 45 Sudeste 0.6 -- -- 95
2020-10-20 12:00:00 15 20 Sudeste 32 Sudeste 0 -- -- 94
2020-10-20 11:00:00 14.9 18 Sudeste 32 Sudeste 0.2 -- -- 93
2020-10-20 10:00:00 14.5 13 Sudeste 38 Sudeste 0.2 -- -- 92
2020-10-20 09:00:00 14.6 25 Sudeste 50 Sudeste 0.2 -- -- 90
2020-10-20 08:00:00 15.1 31 Sudeste 52 Sudeste 0 -- -- 83
2020-10-20 07:00:00 15.1 29 Sudeste 50 Sudeste 0 -- -- 81
2020-10-20 06:00:00 14.9 26 Sudeste 45 Sudeste 0 -- -- 79
2020-10-20 05:00:00 14.8 22 Sudeste 38 Sudeste 0 -- -- 80
2020-10-20 04:00:00 14.9 20 Sudeste 40 Sudeste 0 -- -- 79
2020-10-20 03:00:00 15.1 26 Sudeste 47 Sudeste 0 -- -- 78
2020-10-20 02:00:00 15 19 Sudeste 33 Sudeste 0 -- -- 78
2020-10-20 01:00:00 15.2 14 Sudeste 25 Sudeste 0 -- -- 74
2020-10-20 00:00:00 15.7 5 Sudeste 36 Sudeste 0 -- -- 68
2020-10-19 23:00:00 16.7 22 Sudeste 33 Sudeste 0 -- -- 63
2020-10-19 22:00:00 17.3 26 Sudeste 39 Sudeste 0 -- -- 63
2020-10-19 21:00:00 17.7 16 Sudeste 27 Sudeste 0 -- -- 60
2020-10-19 20:00:00 18.8 17 Sudeste 43 Sudeste 0 -- -- 56
2020-10-19 19:00:00 20 27 Sudeste 51 Sudeste 0 -- -- 51
2020-10-19 18:00:00 21.1 32 Sudeste 56 Sudeste 0 -- -- 44
2020-10-19 17:00:00 21.5 33 Sudeste 52 Sudeste 0 -- -- 45
2020-10-19 16:00:00 21.5 32 Sudeste 50 Sudeste 0 -- -- 45
2020-10-19 15:00:00 20.6 27 Sudeste 46 Sudeste 0 -- -- 52
2020-10-19 14:00:00 18.7 28 Sudeste 43 Sudeste 0 -- -- 56
2020-10-19 13:00:00 16.7 22 Sudeste 33 Sudeste 0 -- -- 65
2020-10-19 12:00:00 13.2 16 Sudeste 30 Sudeste 0 -- -- 77
2020-10-19 11:00:00 10.8 13 Sudeste 19 Sudeste 0 -- -- 84
2020-10-19 10:00:00 7.7 7 Sudeste 13 Sudeste 0 -- -- 97
2020-10-19 09:00:00 3.3 2 Este 8 Sudeste 0 -- -- 97
2020-10-19 08:00:00 3.3 6 Sur 11 Sur 0 -- -- 97
2020-10-19 07:00:00 3.4 7 Sur 11 Sur 0 -- -- 98
2020-10-19 06:00:00 2.2 2 Este 9 Sur 0 -- -- 96
2020-10-19 05:00:00 2.3 0 Calma 8 Sur 0 -- -- 97
2020-10-19 04:00:00 2.6 2 Sur 5 Sudoeste 0 -- -- 95
2020-10-19 03:00:00 3.1 2 Sudoeste 5 Sudoeste 0 -- -- 93
2020-10-19 02:00:00 3.8 2 Sur 7 Sur 0 -- -- 93
2020-10-19 01:00:00 4.5 5 Sur 8 Sudeste 0 -- -- 91
2020-10-19 00:00:00 5.1 3 Sudeste 7 Este 0 -- -- 89
2020-10-18 23:00:00 5.9 5 Sur 9 Sur 0 -- -- 88
2020-10-18 22:00:00 7 4 Sudoeste 6 Sudoeste 0 -- -- 81
2020-10-18 21:00:00 8.9 5 Sudoeste 6 Sudoeste 0 -- -- 76
2020-10-18 20:00:00 13.1 3 Sudoeste 6 Sudeste 0 -- -- 63
2020-10-18 19:00:00 19.7 2 Sudeste 8 Sudeste 0 -- -- 46
2020-10-18 18:00:00 20.3 0 Calma 6 Este 0 -- -- 41
2020-10-18 17:00:00 20.1 4 Sudeste 13 Este 0 -- -- 40
2020-10-18 16:00:00 18.9 8 Este 12 Este 0 -- -- 44
2020-10-18 15:00:00 19.2 5 Sudeste 11 Este 0 -- -- 44
2020-10-18 14:00:00 17.1 3 Sudeste 10 Este 0 -- -- 48
2020-10-18 13:00:00 14.7 3 Este 9 Nordeste 0 -- -- 57
2020-10-18 12:00:00 12.3 4 Noroeste 10 Oeste 0 -- -- 67
2020-10-18 11:00:00 9.7 2 Nordeste 5 Nordeste 0 -- -- 80
2020-10-18 10:00:00 5.9 0 Calma 4 Sudoeste 0 -- -- 99
2020-10-18 09:00:00 1 0 Calma 5 Sur 0 -- -- 98
2020-10-18 08:00:00 0.5 0 Calma 4 Oeste 0 -- -- 97
2020-10-18 07:00:00 0.7 4 Sudoeste 6 Sudoeste 0 -- -- 97
2020-10-18 06:00:00 0.7 0 Calma 6 Sur 0 -- -- 96
2020-10-18 05:00:00 1.2 3 Oeste 6 Sudoeste 0 -- -- 96
2020-10-18 04:00:00 1.5 4 Sudoeste 6 Sudoeste 0 -- -- 95
2020-10-18 03:00:00 1.5 4 Oeste 6 Sudoeste 0 -- -- 95
2020-10-18 02:00:00 2.2 4 Oeste 8 Sudoeste 0 -- -- 93
2020-10-18 01:00:00 2.6 3 Sudoeste 5 Noroeste 0 -- -- 91
2020-10-18 00:00:00 3.6 0 Calma 5 Sudoeste 0 -- -- 90
2020-10-17 23:00:00 4.5 0 Calma 4 Sudoeste 0 -- -- 87
2020-10-17 22:00:00 6.3 0 Calma 8 Sur 0 -- -- 79
2020-10-17 21:00:00 8.6 5 Sudoeste 8 Este 0 -- -- 74
2020-10-17 20:00:00 11.9 3 Sudoeste 9 Sur 0 -- -- 62
2020-10-17 19:00:00 15.9 5 Sur 9 Sur 0 -- -- 58
2020-10-17 18:00:00 18.1 4 Sudoeste 7 Sudoeste 0 -- -- 48
2020-10-17 17:00:00 17.2 3 Nordeste 9 Norte 0 -- -- 43
2020-10-17 16:00:00 16.9 3 Noroeste 11 Norte 0 -- -- 44
2020-10-17 15:00:00 15.4 2 Norte 9 Nordeste 0 -- -- 51
2020-10-17 14:00:00 14.1 4 Sudeste 8 Nordeste 0 -- -- 55
2020-10-17 13:00:00 11.9 3 Norte 12 Norte 0 -- -- 62
2020-10-17 12:00:00 9.6 5 Nordeste 9 Norte 0 -- -- 75
2020-10-17 11:00:00 6.9 4 Norte 8 Noroeste 0 -- -- 86
2020-10-17 10:00:00 3.7 2 Norte 4 Norte 0 -- -- 98
2020-10-17 09:00:00 -1.2 0 Calma 3 Sudoeste 0 -- -- 97
2020-10-17 08:00:00 -1.3 0 Calma 2 Sur 0 -- -- 97
2020-10-17 07:00:00 -1.3 0 Calma 5 Sudoeste 0 -- -- 96
2020-10-17 06:00:00 -0.9 3 Sudoeste 6 Sudoeste 0 -- -- 96
2020-10-17 05:00:00 -0.5 4 Sudoeste 5 Sudoeste 0 -- -- 95
2020-10-17 04:00:00 0 3 Sudoeste 6 Sudoeste 0 -- -- 94
2020-10-17 03:00:00 0.6 0 Calma 3 Sur 0 -- -- 92
2020-10-17 02:00:00 1.6 0 Calma 9 Sudoeste 0 -- -- 92
2020-10-17 01:00:00 2.7 0 Calma 4 Sudoeste 0 -- -- 90
2020-10-17 00:00:00 3.7 4 Sudoeste 7 Sudoeste 0 -- -- 87
2020-10-16 23:00:00 5.1 5 Oeste 10 Noroeste 0 -- -- 82
2020-10-16 22:00:00 6.7 7 Noroeste 12 Noroeste 0 -- -- 77
2020-10-16 21:00:00 8 8 Noroeste 12 Noroeste 0 -- -- 73
2020-10-16 20:00:00 10.6 4 Norte 24 Noroeste 0 -- -- 63
2020-10-16 19:00:00 12.6 14 Noroeste 36 Noroeste 0 -- -- 56
2020-10-16 18:00:00 14.5 19 Noroeste 36 Noroeste 0 -- -- 50
2020-10-16 17:00:00 15.4 26 Noroeste 43 Noroeste 0 -- -- 47
2020-10-16 16:00:00 15.9 21 Noroeste 41 Noroeste 0 -- -- 48
2020-10-16 15:00:00 15.7 23 Noroeste 40 Noroeste 0 -- -- 50
2020-10-16 14:00:00 15 22 Noroeste 42 Oeste 0 -- -- 52
2020-10-16 13:00:00 13.8 21 Noroeste 42 Noroeste 0 -- -- 56
2020-10-16 12:00:00 13.4 22 Noroeste 40 Noroeste 0 -- -- 57
2020-10-16 11:00:00 11.9 22 Noroeste 33 Noroeste 0 -- -- 62
2020-10-16 10:00:00 9.4 10 Noroeste 19 Noroeste 0 -- -- 78
2020-10-16 09:00:00 6.1 10 Noroeste 19 Norte 0 -- -- 91
2020-10-16 08:00:00 5.9 11 Noroeste 21 Noroeste 0 -- -- 89
2020-10-16 07:00:00 6.4 11 Noroeste 18 Noroeste 0 -- -- 90
2020-10-16 06:00:00 5.7 4 Noroeste 20 Noroeste 0 -- -- 85
2020-10-16 05:00:00 7.8 12 Noroeste 24 Noroeste 0 -- -- 77
2020-10-16 04:00:00 7.6 11 Noroeste 20 Noroeste 0 -- -- 81
2020-10-16 03:00:00 7.4 11 Noroeste 18 Noroeste 0 -- -- 83
2020-10-16 02:00:00 6.2 9 Noroeste 15 Norte 0 -- -- 89
2020-10-16 01:00:00 6.1 8 Noroeste 20 Noroeste 0 -- -- 86
2020-10-16 00:00:00 7 10 Noroeste 19 Noroeste 0 -- -- 83
2020-10-15 23:00:00 7.6 12 Noroeste 21 Norte 0 -- -- 82
2020-10-15 22:00:00 7.8 13 Noroeste 22 Noroeste 0 -- -- 79
2020-10-15 21:00:00 8.4 9 Noroeste 26 Noroeste 0 -- -- 74
2020-10-15 20:00:00 9.4 13 Noroeste 37 Noroeste 0 -- -- 71
2020-10-15 19:00:00 10.4 16 Noroeste 39 Noroeste 0 -- -- 66
2020-10-15 18:00:00 12.5 23 Noroeste 36 Noroeste 0 -- -- 57
2020-10-15 17:00:00 12.5 21 Noroeste 38 Noroeste 0 -- -- 56
2020-10-15 16:00:00 14.4 23 Noroeste 40 Noroeste 0 -- -- 53
2020-10-15 15:00:00 15.3 21 Noroeste 37 Norte 0 -- -- 52
2020-10-15 14:00:00 14.7 19 Noroeste 36 Noroeste 0 -- -- 48
2020-10-15 13:00:00 11.5 14 Noroeste 28 Norte 0 -- -- 66
2020-10-15 12:00:00 11.9 21 Noroeste 36 Norte 0 -- -- 70
2020-10-15 11:00:00 10.7 12 Norte 21 Norte 0 -- -- 79
2020-10-15 10:00:00 10 9 Noroeste 18 Noroeste 0 -- -- 81
2020-10-15 09:00:00 7.6 5 Noroeste 14 Noroeste 0 -- -- 88
2020-10-15 08:00:00 6.6 8 Noroeste 14 Noroeste 0 -- -- 93
2020-10-15 07:00:00 6 6 Noroeste 13 Noroeste 0 -- -- 89
2020-10-15 06:00:00 5.6 0 Calma 12 Noroeste 0 -- -- 87
2020-10-15 05:00:00 5.8 3 Oeste 13 Noroeste 0 -- -- 84
2020-10-15 04:00:00 6.6 6 Noroeste 15 Noroeste 0 -- -- 84
2020-10-15 03:00:00 7.2 8 Noroeste 15 Oeste 0 -- -- 83
2020-10-15 02:00:00 8 8 Noroeste 27 Noroeste 0 -- -- 80
2020-10-15 01:00:00 8.4 13 Noroeste 23 Noroeste 0 -- -- 79
2020-10-15 00:00:00 8 9 Noroeste 18 Noroeste 0 -- -- 79
2020-10-14 23:00:00 8.8 9 Noroeste 26 Noroeste 0 -- -- 76
2020-10-14 22:00:00 9.4 16 Noroeste 28 Noroeste 0 -- -- 74
2020-10-14 21:00:00 9.5 14 Noroeste 32 Noroeste 0 -- -- 73
2020-10-14 20:00:00 10 17 Noroeste 44 Noroeste 0 -- -- 72
2020-10-14 19:00:00 11.8 22 Noroeste 44 Noroeste 0 -- -- 66
2020-10-14 18:00:00 12.4 21 Noroeste 45 Oeste 0 -- -- 66
2020-10-14 17:00:00 14.4 28 Noroeste 48 Noroeste 0 -- -- 59
2020-10-14 16:00:00 13.6 20 Noroeste 44 Noroeste 0 -- -- 63
2020-10-14 15:00:00 12.5 23 Noroeste 46 Norte 0 -- -- 63
2020-10-14 14:00:00 14.1 29 Noroeste 49 Noroeste 0 -- -- 54
2020-10-14 13:00:00 11.9 19 Noroeste 43 Norte 0 -- -- 71
2020-10-14 12:00:00 13.3 21 Noroeste 42 Noroeste 0 -- -- 60
2020-10-14 11:00:00 13.4 22 Noroeste 42 Noroeste 0 -- -- 60
2020-10-14 10:00:00 13 18 Noroeste 36 Noroeste 0 -- -- 63
2020-10-14 09:00:00 10.9 13 Noroeste 24 Noroeste 0 -- -- 75
2020-10-14 08:00:00 11 9 Noroeste 27 Noroeste 0 -- -- 75
2020-10-14 07:00:00 11.3 12 Noroeste 21 Noroeste 0 -- -- 73
2020-10-14 06:00:00 10.5 8 Noroeste 19 Noroeste 0 -- -- 79
2020-10-14 05:00:00 10.8 13 Noroeste 23 Noroeste 0 -- -- 78
2020-10-14 04:00:00 8.6 2 Sudoeste 13 Noroeste 0 -- -- 90
2020-10-14 03:00:00 10.1 7 Noroeste 21 Noroeste 0 -- -- 87
2020-10-14 02:00:00 10.9 12 Noroeste 19 Noroeste 0 -- -- 85
2020-10-14 01:00:00 11.6 9 Noroeste 15 Noroeste 0 -- -- 84
2020-10-14 00:00:00 12 6 Noroeste 19 Oeste 0 -- -- 81
2020-10-13 23:00:00 12.3 10 Noroeste 21 Noroeste 0 -- -- 79
2020-10-13 22:00:00 12.7 7 Noroeste 17 Oeste 0 -- -- 79
2020-10-13 21:00:00 13.6 11 Noroeste 32 Noroeste 0 -- -- 69
2020-10-13 20:00:00 14.1 10 Noroeste 35 Norte 0 -- -- 64
2020-10-13 19:00:00 15 22 Norte 39 Norte 0 -- -- 59
2020-10-13 18:00:00 17.2 20 Norte 32 Norte 0 -- -- 53
2020-10-13 17:00:00 17.5 20 Norte 36 Noroeste 0 -- -- 52
2020-10-13 16:00:00 19 21 Noroeste 36 Noroeste 0 -- -- 51
2020-10-13 15:00:00 17.8 21 Norte 34 Norte 0 -- -- 55
2020-10-13 14:00:00 18.1 17 Noroeste 34 Norte 0 -- -- 56
2020-10-13 13:00:00 16.7 21 Norte 36 Noroeste 0 -- -- 61
2020-10-13 12:00:00 17.4 20 Noroeste 39 Noroeste 0 -- -- 65
2020-10-13 11:00:00 17.1 17 Noroeste 41 Noroeste 0 -- -- 69
2020-10-13 10:00:00 -- -- -- -- -- -- -- -- --
2020-10-13 09:00:00 10 2 Oeste 7 Sudoeste 0 -- -- 96
2020-10-13 08:00:00 10 3 Noroeste 6 Noroeste 0 -- -- 93
2020-10-13 07:00:00 10.6 3 Sudoeste 4 Sudoeste 0 -- -- 95
2020-10-13 06:00:00 10.1 0 Calma 6 Nordeste 0 -- -- 94
2020-10-13 05:00:00 9.9 2 Sudeste 9 Sudoeste 0 -- -- 93
2020-10-13 04:00:00 -- -- -- -- -- -- -- -- --
2020-10-13 03:00:00 10.6 2 Este 7 Norte 0 -- -- 91
2020-10-13 02:00:00 11.2 4 Sudoeste 6 Sudoeste 0 -- -- 86
2020-10-13 01:00:00 -- -- -- -- -- -- -- -- --
2020-10-13 00:00:00 11.7 3 Nordeste 5 Nordeste 0 -- -- 81
2020-10-12 23:00:00 11.8 0 Calma 5 Nordeste 0 -- -- 80
2020-10-12 22:00:00 11.7 2 Este 8 Este 0 -- -- 73
2020-10-12 21:00:00 12.1 3 Sudoeste 10 Norte 0 -- -- 71
2020-10-12 20:00:00 12.6 4 Norte 18 Norte 0 -- -- 62
2020-10-12 19:00:00 14.9 13 Norte 37 Noroeste 0 -- -- 51
2020-10-12 18:00:00 16.1 19 Noroeste 35 Noroeste 0 -- -- 48
2020-10-12 17:00:00 16.4 19 Noroeste 43 Noroeste 0 -- -- 49
2020-10-12 16:00:00 17.3 24 Noroeste 43 Noroeste 0 -- -- 50
2020-10-12 15:00:00 15.3 21 Noroeste 44 Norte 0 -- -- 60
2020-10-12 14:00:00 15.2 23 Noroeste 39 Noroeste 0 -- -- 59
2020-10-12 13:00:00 14.1 15 Noroeste 30 Noroeste 0 -- -- 75
2020-10-12 12:00:00 11.9 13 Norte 32 Norte 0 -- -- 79
2020-10-12 11:00:00 12.1 14 Norte 25 Noroeste 0 -- -- 72
2020-10-12 10:00:00 11.2 9 Noroeste 18 Norte 0 -- -- 74
2020-10-12 09:00:00 10.9 11 Noroeste 26 Noroeste 0 -- -- 75
2020-10-12 08:00:00 10.4 14 Noroeste 32 Noroeste 0 -- -- 77
2020-10-12 07:00:00 10.1 15 Noroeste 30 Noroeste 0 -- -- 78
2020-10-12 06:00:00 10.6 18 Noroeste 31 Noroeste 0 -- -- 77
2020-10-12 05:00:00 10.5 16 Noroeste 33 Noroeste 0 -- -- 79
2020-10-12 04:00:00 -- -- -- -- -- -- -- -- --
2020-10-12 03:00:00 11.1 18 Noroeste 29 Noroeste 0 -- -- 78
2020-10-12 02:00:00 10.7 15 Noroeste 34 Noroeste 0 -- -- 81
2020-10-12 01:00:00 11.2 19 Noroeste 36 Noroeste 0 -- -- 75
2020-10-12 00:00:00 11.1 19 Noroeste 34 Noroeste 0 -- -- 76
2020-10-11 23:00:00 10.6 15 Noroeste 29 Noroeste 0 -- -- 79
2020-10-11 22:00:00 10.5 15 Noroeste 27 Noroeste 0 -- -- 77
2020-10-11 21:00:00 -- -- -- -- -- -- -- -- --
2020-10-11 20:00:00 -- -- -- -- -- -- -- -- --
2020-10-11 19:00:00 13.2 18 Noroeste 40 Noroeste 0 -- -- 65
2020-10-11 18:00:00 14.3 23 Noroeste 45 Noroeste 0 -- -- 60
2020-10-11 17:00:00 14.7 22 Noroeste 48 Noroeste 0 -- -- 58
2020-10-11 16:00:00 15.4 27 Noroeste 54 Noroeste 0 -- -- 60
2020-10-11 15:00:00 14.7 24 Noroeste 44 Noroeste 0 -- -- 58
2020-10-11 14:00:00 15.2 24 Noroeste 43 Noroeste 0 -- -- 54
2020-10-11 13:00:00 15.4 24 Noroeste 44 Noroeste 0 -- -- 53
2020-10-11 12:00:00 14.7 25 Noroeste 42 Noroeste 0 -- -- 50
2020-10-11 11:00:00 13.3 21 Noroeste 41 Noroeste 0 -- -- 56
2020-10-11 10:00:00 12.8 19 Noroeste 32 Norte 0 -- -- 60
2020-10-11 09:00:00 11 20 Noroeste 33 Noroeste 0 -- -- 68
2020-10-11 08:00:00 10.5 14 Norte 27 Norte 0 -- -- 73
2020-10-11 07:00:00 10.9 12 Noroeste 23 Norte 0 -- -- 72
2020-10-11 06:00:00 11.1 13 Norte 24 Norte 0 -- -- 70
2020-10-11 05:00:00 10.5 11 Noroeste 21 Noroeste 0 -- -- 74
2020-10-11 04:00:00 11.2 11 Noroeste 23 Noroeste 0 -- -- 74
2020-10-11 03:00:00 11.1 13 Noroeste 23 Noroeste 0 -- -- 81
2020-10-11 02:00:00 11.7 8 Noroeste 22 Noroeste 0 -- -- 85
2020-10-11 01:00:00 12.4 16 Noroeste 28 Noroeste 0 -- -- 80
2020-10-11 00:00:00 13 14 Noroeste 25 Noroeste 0 -- -- 75
2020-10-10 23:00:00 12 13 Noroeste 23 Noroeste 0 -- -- 79
2020-10-10 22:00:00 10.9 4 Nordeste 19 Noroeste 0 -- -- 78
2020-10-10 21:00:00 11.7 10 Noroeste 28 Norte 0 -- -- 77
2020-10-10 20:00:00 13 12 Norte 32 Norte 0 -- -- 72
2020-10-10 19:00:00 15.2 22 Norte 36 Norte 0 -- -- 64
2020-10-10 18:00:00 16.4 17 Norte 31 Norte 0 -- -- 58
2020-10-10 17:00:00 17 17 Noroeste 33 Norte 0 -- -- 58
2020-10-10 16:00:00 16.9 21 Norte 38 Noroeste 0 -- -- 62
2020-10-10 15:00:00 17.9 21 Norte 34 Norte 0 -- -- 59
2020-10-10 14:00:00 17.2 19 Noroeste 37 Norte 0 -- -- 69
2020-10-10 13:00:00 18.2 21 Noroeste 36 Noroeste 0 -- -- 65
2020-10-10 12:00:00 19.7 18 Norte 33 Noroeste 0 -- -- 60
2020-10-10 11:00:00 18.3 11 Norte 20 Norte 0 -- -- 67
2020-10-10 10:00:00 15.4 11 Norte 19 Norte 0 -- -- 78
2020-10-10 09:00:00 12.9 8 Norte 12 Norte 0 -- -- 91
2020-10-10 08:00:00 12.5 5 Norte 14 Norte 0 -- -- 88
2020-10-10 07:00:00 13.8 8 Noroeste 17 Norte 0 -- -- 83
2020-10-10 06:00:00 14.3 7 Norte 16 Norte 0 -- -- 83
2020-10-10 05:00:00 14 8 Norte 17 Noroeste 0 -- -- 86
2020-10-10 04:00:00 14.5 7 Noroeste 20 Norte 0 -- -- 82
2020-10-10 03:00:00 16.2 12 Noroeste 23 Noroeste 0 -- -- 76
2020-10-10 02:00:00 16.4 9 Noroeste 16 Noroeste 0 -- -- 76
2020-10-10 01:00:00 15.1 10 Noroeste 19 Noroeste 0 -- -- 83
2020-10-10 00:00:00 15.8 7 Noroeste 15 Noroeste 0 -- -- 81
2020-10-09 23:00:00 16.3 10 Noroeste 19 Noroeste 0 -- -- 79
2020-10-09 22:00:00 16.5 12 Noroeste 21 Noroeste 0 -- -- 77
2020-10-09 21:00:00 17.3 10 Noroeste 19 Norte 0 -- -- 77
2020-10-09 20:00:00 18.8 11 Norte 27 Norte 0 -- -- 72
2020-10-09 19:00:00 21.2 17 Norte 30 Norte 0 -- -- 64
2020-10-09 18:00:00 24.5 11 Noroeste 19 Noroeste 0 -- -- 52
2020-10-09 17:00:00 24.9 9 Noroeste 22 Noroeste 0 -- -- 53
2020-10-09 16:00:00 24.4 5 Norte 19 Norte 0 -- -- 56
2020-10-09 15:00:00 23.5 6 Nordeste 23 Noroeste 0 -- -- 58
2020-10-09 14:00:00 22 4 Este 13 Norte 0 -- -- 62
2020-10-09 13:00:00 20.5 4 Norte 12 Nordeste 0 -- -- 66
2020-10-09 12:00:00 18.6 6 Norte 12 Norte 0 -- -- 72
2020-10-09 11:00:00 15.9 5 Norte 9 Norte 0 -- -- 84
2020-10-09 10:00:00 11.7 3 Noroeste 10 Noroeste 0 -- -- 100
2020-10-09 09:00:00 9.1 2 Sudoeste 4 Oeste 0 -- -- 99
2020-10-09 08:00:00 8.7 2 Sudoeste 5 Sudoeste 0 -- -- 99
2020-10-09 07:00:00 8.1 4 Sudoeste 6 Sudoeste 0 -- -- 98
2020-10-09 06:00:00 8.1 4 Sudoeste 6 Oeste 0 -- -- 97
2020-10-09 05:00:00 8.7 3 Oeste 6 Sudoeste 0 -- -- 96
2020-10-09 04:00:00 9.4 0 Calma 4 Sur 0 -- -- 96
2020-10-09 03:00:00 9.9 0 Calma 5 Sudoeste 0 -- -- 96
2020-10-09 02:00:00 9.9 4 Oeste 5 Oeste 0 -- -- 95
2020-10-09 01:00:00 10.5 0 Calma 5 Oeste 0 -- -- 94
2020-10-09 00:00:00 11.1 5 Sudoeste 6 Sudoeste 0 -- -- 91
2020-10-08 23:00:00 12.1 3 Oeste 8 Sur 0 -- -- 90
2020-10-08 22:00:00 13.6 6 Sur 8 Sur 0 -- -- 87
2020-10-08 21:00:00 15.5 5 Sudoeste 7 Sudoeste 0 -- -- 82
2020-10-08 20:00:00 18.6 3 Noroeste 4 Noroeste 0 -- -- 74
2020-10-08 19:00:00 21.7 2 Norte 6 Norte 0 -- -- 67
2020-10-08 18:00:00 22.9 0 Calma 13 Sudeste 0 -- -- 59
2020-10-08 17:00:00 23.4 6 Sudeste 15 Sur 0 -- -- 54
2020-10-08 16:00:00 23.1 8 Sudeste 17 Sudeste 0 -- -- 55
2020-10-08 15:00:00 22.2 4 Sur 16 Este 0 -- -- 57
2020-10-08 14:00:00 19.9 5 Este 14 Este 0 -- -- 64
2020-10-08 13:00:00 18.4 4 Nordeste 13 Este 0 -- -- 70
2020-10-08 12:00:00 16.5 4 Este 9 Este 0 -- -- 79
2020-10-08 11:00:00 13.8 4 Nordeste 5 Nordeste 0 -- -- 93
2020-10-08 10:00:00 11 0 Calma 4 Sudoeste 0 -- -- 98
2020-10-08 09:00:00 8 3 Sudoeste 5 Sudoeste 0 -- -- 99
2020-10-08 08:00:00 7 0 Calma 4 Oeste 0 -- -- 97
2020-10-08 07:00:00 7.8 3 Este 5 Sudeste 0 -- -- 97
2020-10-08 06:00:00 8.6 4 Sudeste 5 Sudeste 0 -- -- 96
2020-10-08 05:00:00 9.2 0 Calma 5 Noroeste 0 -- -- 94
2020-10-08 04:00:00 10.4 0 Calma 12 Oeste 0 -- -- 93
2020-10-08 03:00:00 12.1 11 Oeste 13 Oeste 0 -- -- 94
2020-10-08 02:00:00 12.3 9 Noroeste 14 Oeste 0 -- -- 93
2020-10-08 01:00:00 12.5 8 Noroeste 14 Noroeste 0 -- -- 91
2020-10-08 00:00:00 13.4 10 Noroeste 15 Oeste 0 -- -- 89
2020-10-07 23:00:00 13.7 10 Noroeste 15 Oeste 0 -- -- 89
2020-10-07 22:00:00 14.7 9 Oeste 16 Norte 0 -- -- 83
2020-10-07 21:00:00 16.4 7 Norte 26 Norte 0 -- -- 78
2020-10-07 20:00:00 17.9 9 Norte 25 Norte 0 -- -- 72
2020-10-07 19:00:00 19.6 16 Norte 31 Norte 0 -- -- 65
2020-10-07 18:00:00 21.8 13 Nordeste 30 Norte 0 -- -- 58
2020-10-07 17:00:00 23.6 16 Norte 30 Noroeste 0 -- -- 55
2020-10-07 16:00:00 22.9 15 Noroeste 34 Norte 0 -- -- 55
2020-10-07 15:00:00 23.1 18 Noroeste 31 Norte 0 -- -- 58
2020-10-07 14:00:00 23 19 Noroeste 34 Noroeste 0 -- -- 58
2020-10-07 13:00:00 21.4 16 Noroeste 28 Norte 0 -- -- 63
2020-10-07 12:00:00 20.1 12 Noroeste 22 Norte 0 -- -- 67
2020-10-07 11:00:00 18.2 6 Norte 12 Sudoeste 0 -- -- 75
2020-10-07 10:00:00 15.2 11 Sudoeste 18 Sudoeste 0 -- -- 93
2020-10-07 09:00:00 11 4 Sudoeste 8 Oeste 0 -- -- 98
2020-10-07 08:00:00 11.3 5 Sudoeste 8 Sudoeste 0 -- -- 97
2020-10-07 07:00:00 12.8 6 Norte 11 Norte 0 -- -- 98
2020-10-07 06:00:00 11.5 5 Noroeste 8 Noroeste 0 -- -- 98
2020-10-07 05:00:00 10.7 2 Sur 8 Sur 0 -- -- 97
2020-10-07 04:00:00 11.8 0 Calma 13 Noroeste 0 -- -- 97
2020-10-07 03:00:00 12 5 Norte 8 Noroeste 0 -- -- 97
2020-10-07 02:00:00 11.3 4 Oeste 8 Noroeste 0 -- -- 95
2020-10-07 01:00:00 12.1 0 Calma 5 Norte 0 -- -- 94
2020-10-07 00:00:00 12.8 4 Sudoeste 8 Sudoeste 0 -- -- 92
2020-10-06 23:00:00 14.1 5 Sudoeste 8 Sudoeste 0 -- -- 88
2020-10-06 22:00:00 16.2 0 Calma 11 Norte 0 -- -- 79
2020-10-06 21:00:00 18.7 3 Norte 10 Nordeste 0 -- -- 75
2020-10-06 20:00:00 20.3 0 Calma 7 Nordeste 0 -- -- 73
2020-10-06 19:00:00 22.1 4 Nordeste 12 Nordeste 0 -- -- 64
2020-10-06 18:00:00 23.6 7 Nordeste 31 Noroeste 0 -- -- 56
2020-10-06 17:00:00 23.8 19 Noroeste 31 Noroeste 0 -- -- 55
2020-10-06 16:00:00 23.9 10 Norte 18 Noroeste 0 -- -- 56
2020-10-06 15:00:00 23.4 5 Oeste 17 Oeste 0 -- -- 52
2020-10-06 14:00:00 23.1 9 Noroeste 18 Noroeste 0 -- -- 52
2020-10-06 13:00:00 20.8 6 Norte 15 Norte 0 -- -- 61
2020-10-06 12:00:00 18.9 3 Nordeste 8 Nordeste 0 -- -- 59
2020-10-06 11:00:00 15.7 2 Oeste 6 Nordeste 0 -- -- 68
2020-10-06 10:00:00 12.3 0 Calma 5 Sudoeste 0 -- -- 94
2020-10-06 09:00:00 10 2 Norte 4 Norte 0 -- -- 97
2020-10-06 08:00:00 9.6 0 Calma 6 Sur 0 -- -- 96
2020-10-06 07:00:00 10.1 3 Sur 6 Sur 0 -- -- 97
2020-10-06 06:00:00 10.2 0 Calma 4 Oeste 0 -- -- 98
2020-10-06 05:00:00 9.7 3 Sudoeste 5 Sudoeste 0 -- -- 98
2020-10-06 04:00:00 9.1 0 Calma 3 Sur 0 -- -- 98
2020-10-06 03:00:00 7.8 0 Calma 5 Sudoeste 0 -- -- 97
2020-10-06 02:00:00 7.4 0 Calma 7 Oeste 0 -- -- 95
2020-10-06 01:00:00 7.2 3 Oeste 5 Norte 0 -- -- 91
2020-10-06 00:00:00 8.7 0 Calma 6 Sudeste 0 -- -- 90
2020-10-05 23:00:00 9.4 7 Sudeste 9 Sudeste 0 -- -- 88
2020-10-05 22:00:00 9.8 7 Sur 10 Sur 0 -- -- 86
2020-10-05 21:00:00 11.3 8 Sudoeste 10 Sudoeste 0 -- -- 79
2020-10-05 20:00:00 15.2 8 Sudoeste 11 Sur 0 -- -- 63
2020-10-05 19:00:00 18.5 5 Norte 16 Norte 0 -- -- 48
2020-10-05 18:00:00 19.5 9 Norte 17 Noroeste 0 -- -- 43
2020-10-05 17:00:00 19.6 12 Norte 22 Norte 0 -- -- 47
2020-10-05 16:00:00 19.4 10 Norte 25 Noroeste 0 -- -- 46
2020-10-05 15:00:00 19 14 Norte 26 Noroeste 0 -- -- 49
2020-10-05 14:00:00 18.2 12 Norte 24 Noroeste 0 -- -- 52
2020-10-05 13:00:00 17.1 5 Oeste 12 Norte 0 -- -- 56
2020-10-05 12:00:00 15.5 4 Sudoeste 12 Norte 0 -- -- 63
2020-10-05 11:00:00 13.3 4 Noroeste 11 Norte 0 -- -- 80
2020-10-05 10:00:00 9.4 3 Sudoeste 6 Sudoeste 0 -- -- 100
2020-10-05 09:00:00 6.1 3 Sudoeste 5 Sur 0 -- -- 100
2020-10-05 08:00:00 5.1 4 Sur 6 Sur 0 -- -- 99
2020-10-05 07:00:00 5.5 0 Calma 5 Sur 0 -- -- 99
2020-10-05 06:00:00 6.2 2 Sudeste 8 Sudoeste 0 -- -- 99
2020-10-05 05:00:00 5.5 4 Sudoeste 6 Oeste 0 -- -- 99
2020-10-05 04:00:00 5.5 4 Sur 5 Sur 0 -- -- 99
2020-10-05 03:00:00 5.1 2 Sur 10 Sudoeste 0 -- -- 98
2020-10-05 02:00:00 5.5 4 Sudoeste 8 Sudoeste 0 -- -- 97
2020-10-05 01:00:00 6 2 Sudoeste 7 Oeste 0 -- -- 96
2020-10-05 00:00:00 6.9 3 Sudeste 6 Nordeste 0 -- -- 95
2020-10-04 23:00:00 7.7 2 Sudoeste 7 Oeste 0 -- -- 95
2020-10-04 22:00:00 8.6 0 Calma 12 Sudoeste 0 -- -- 93
2020-10-04 21:00:00 9.4 9 Sudoeste 12 Sudoeste 0 -- -- 88
2020-10-04 20:00:00 12 3 Noroeste 9 Oeste 0 -- -- 80
2020-10-04 19:00:00 13.6 7 Norte 18 Oeste 0 -- -- 75
2020-10-04 18:00:00 14.6 11 Noroeste 25 Oeste 0.6 -- -- 79
2020-10-04 17:00:00 12.3 15 Noroeste 34 Noroeste 0.4 -- -- 86
2020-10-04 16:00:00 13.9 9 Noroeste 18 Noroeste 0 -- -- 81
2020-10-04 15:00:00 13.4 8 Oeste 24 Norte 1.2 -- -- 90
2020-10-04 14:00:00 15 5 Nordeste 13 Sudeste 0 -- -- 70
2020-10-04 13:00:00 13.9 6 Este 18 Este 0.4 -- -- 80
2020-10-04 12:00:00 12.8 8 Nordeste 19 Norte 0.4 -- -- 81
2020-10-04 11:00:00 12.4 4 Norte 14 Norte 0 -- -- 79
2020-10-04 10:00:00 10.2 6 Noroeste 18 Noroeste 0 -- -- 100
2020-10-04 09:00:00 6.2 4 Noroeste 9 Norte 0 -- -- 100
2020-10-04 08:00:00 6.3 2 Norte 13 Norte 0 -- -- 99
2020-10-04 07:00:00 2.9 0 Calma 8 Norte 0 -- -- 98
2020-10-04 06:00:00 3.5 0 Calma 5 Sudeste 0 -- -- 97
2020-10-04 05:00:00 3.8 6 Sudoeste 8 Sur 0 -- -- 96
2020-10-04 04:00:00 4.4 2 Nordeste 4 Norte 0 -- -- 95
2020-10-04 03:00:00 5.6 0 Calma 8 Sudoeste 0 -- -- 94
2020-10-04 02:00:00 7.1 3 Sur 10 Sur 0 -- -- 93
2020-10-04 01:00:00 7.8 6 Sudoeste 8 Sur 0 -- -- 87
2020-10-04 00:00:00 10.5 5 Sur 14 Sur 0 -- -- 86
2020-10-03 23:00:00 11.6 5 Oeste 9 Sudoeste 0 -- -- 84
2020-10-03 22:00:00 12.7 4 Norte 9 Norte 0 -- -- 77
2020-10-03 21:00:00 12.5 3 Noroeste 6 Sudoeste 0 -- -- 80
2020-10-03 20:00:00 14.5 0 Calma 11 Norte 0 -- -- 66
2020-10-03 19:00:00 15.9 4 Norte 12 Norte 0 -- -- 55
2020-10-03 18:00:00 16.6 7 Norte 19 Oeste 0 -- -- 49
2020-10-03 17:00:00 18.1 10 Noroeste 35 Oeste 0 -- -- 43
2020-10-03 16:00:00 19.2 22 Noroeste 37 Noroeste 0 -- -- 39
2020-10-03 15:00:00 18.9 23 Noroeste 41 Noroeste 0 -- -- 41
2020-10-03 14:00:00 17.2 13 Oeste 27 Sudoeste 0 -- -- 52
2020-10-03 13:00:00 13.3 4 Este 12 Este 0 -- -- 67
2020-10-03 12:00:00 11.6 7 Nordeste 14 Este 0 -- -- 75
2020-10-03 11:00:00 9.4 9 Este 13 Este 0 -- -- 96
2020-10-03 10:00:00 8.1 0 Calma 8 Sur 0 -- -- 100
2020-10-03 09:00:00 6.5 2 Sudoeste 6 Norte 0 -- -- 100
2020-10-03 08:00:00 5.4 0 Calma 10 Sur 0 -- -- 99
2020-10-03 07:00:00 4.4 2 Sur 8 Norte 0 -- -- 99
2020-10-03 06:00:00 3.2 7 Sudoeste 9 Sudoeste 0 -- -- 98
2020-10-03 05:00:00 3.1 3 Sudoeste 10 Nordeste 0 -- -- 95
2020-10-03 04:00:00 4 2 Oeste 10 Noroeste 0 -- -- 97
2020-10-03 03:00:00 4.2 0 Calma 6 Noroeste 0 -- -- 96
2020-10-03 02:00:00 4.4 2 Sudoeste 6 Oeste 0 -- -- 94
2020-10-03 01:00:00 5.7 2 Norte 8 Sudoeste 0 -- -- 93
2020-10-03 00:00:00 6.2 3 Este 6 Sur 0 -- -- 93
2020-10-02 23:00:00 5.7 5 Sudeste 10 Sur 0 -- -- 90
2020-10-02 22:00:00 6.5 0 Calma 9 Sudoeste 0 -- -- 88
2020-10-02 21:00:00 7.4 9 Oeste 13 Sudoeste 0 -- -- 82
2020-10-02 20:00:00 10.3 11 Oeste 31 Noroeste 0 -- -- 69
2020-10-02 19:00:00 13 21 Noroeste 45 Oeste 0 -- -- 55
2020-10-02 18:00:00 13.8 21 Noroeste 43 Oeste 0 -- -- 50
2020-10-02 17:00:00 15.3 29 Noroeste 45 Oeste 0 -- -- 47
2020-10-02 16:00:00 15.6 25 Noroeste 42 Noroeste 0 -- -- 53
2020-10-02 15:00:00 13.6 26 Noroeste 50 Noroeste 0.2 -- -- 59
2020-10-02 14:00:00 14.5 21 Noroeste 37 Noroeste 0 -- -- 75
2020-10-02 13:00:00 10.9 10 Oeste 23 Noroeste 0 -- -- 87
2020-10-02 12:00:00 9.6 16 Noroeste 37 Noroeste 4 -- -- 95
2020-10-02 11:00:00 10.2 17 Noroeste 42 Noroeste 2.6 -- -- 92
2020-10-02 10:00:00 12.4 10 Noroeste 24 Norte 3.4 -- -- 95
2020-10-02 09:00:00 13.4 16 Norte 28 Norte 4 -- -- 91
2020-10-02 08:00:00 16.1 9 Noroeste 40 Sudoeste 0.6 -- -- 81
2020-10-02 07:00:00 18.5 31 Sudoeste 49 Sudoeste 0 -- -- 60
2020-10-02 06:00:00 17.6 25 Sudoeste 40 Sudoeste 0 -- -- 62
2020-10-02 05:00:00 17.3 19 Sudoeste 53 Sudoeste 0 -- -- 61
2020-10-02 04:00:00 17.2 30 Sudoeste 45 Sudoeste 0 -- -- 61
2020-10-02 03:00:00 16.7 17 Sur 25 Sur 0 -- -- 61
2020-10-02 02:00:00 18.6 4 Sudeste 33 Sudoeste 0 -- -- 49
2020-10-02 01:00:00 19.3 23 Sudoeste 40 Sudoeste 0 -- -- 45
2020-10-02 00:00:00 18.6 23 Sudoeste 33 Sudoeste 0 -- -- 48
2020-10-01 23:00:00 15.9 9 Sudeste 21 Este 0 -- -- 57
2020-10-01 22:00:00 14.4 10 Sudeste 18 Sur 0 -- -- 70
2020-10-01 21:00:00 14.7 10 Sudeste 14 Sudeste 0 -- -- 75
2020-10-01 20:00:00 17 6 Sudeste 9 Sudeste 0 -- -- 65
2020-10-01 19:00:00 19.4 6 Este 13 Nordeste 0 -- -- 60
2020-10-01 18:00:00 21.3 3 Este 14 Este 0 -- -- 51
2020-10-01 17:00:00 21.8 8 Este 15 Este 0 -- -- 50
2020-10-01 16:00:00 21.2 9 Norte 19 Norte 0 -- -- 50
2020-10-01 15:00:00 21.3 8 Nordeste 19 Nordeste 0 -- -- 54
2020-10-01 14:00:00 21.1 9 Norte 28 Norte 0 -- -- 52
2020-10-01 13:00:00 21.5 17 Noroeste 31 Norte 0 -- -- 50
2020-10-01 12:00:00 20.3 18 Norte 35 Noroeste 0 -- -- 50
2020-10-01 11:00:00 18.8 15 Noroeste 33 Noroeste 0 -- -- 57
2020-10-01 10:00:00 13.9 0 Calma 12 Norte 0 -- -- 73
2020-10-01 09:00:00 8.2 0 Calma 5 Sudoeste 0 -- -- 96
2020-10-01 08:00:00 6.6 0 Calma 4 Sur 0 -- -- 91
2020-10-01 07:00:00 7.3 3 Sudoeste 5 Sur 0 -- -- 92
2020-10-01 06:00:00 7.2 0 Calma 7 Oeste 0 -- -- 91
2020-10-01 05:00:00 7.4 3 Sudoeste 6 Sudoeste 0 -- -- 88
2020-10-01 04:00:00 8.1 4 Sudoeste 9 Sudoeste 0 -- -- 85
2020-10-01 03:00:00 10.1 2 Noroeste 12 Noroeste 0 -- -- 76
2020-10-01 02:00:00 12.9 6 Sudoeste 20 Sudeste 0 -- -- 63
2020-10-01 01:00:00 11.8 4 Este 10 Sudeste 0 -- -- 72
2020-10-01 00:00:00 10.8 5 Sudeste 9 Sudeste 0 -- -- 74